Pelagos — SZSW — position and weather

sailwx.info

Track history (hours):
 
Tides and Currents Weather Stations Pressure Air Temp Water Temp Dewpoint Dewpoint Depression Visibility Wind Speed Wind Dir Waves Ship Positions

Pelagos

Last reported at 2014-Aug-20 19:06 UTC. Time now 2014-Aug-23 15:25 UTC.
Position N 39°23' W 009°50'.

Length 249 m; draft 8 m.

Type: Ship. MMSI: 240335000.

Date/timePositionNaut miles runAvg speedWind from/ knotsBaromVisibWave heightAir tempDewpointWater temp
2014-Aug-20 19:06N 39°23' W 009°50'6310.9
2014-Aug-20 13:16N 38°20' W 009°44'5110.9
2014-Aug-20 08:31N 37°29' W 009°30'1110.9
2014-Aug-20 07:33N 37°19' W 009°27'104 9.9
2014-Aug-19 21:07N 36°21' W 007°40'1010.9
2014-Aug-19 20:12N 36°18' W 007°28'1110.9
2014-Aug-19 19:13N 36°14' W 007°16'8510.7
2014-Aug-19 11:19N 35°58' W 005°33'910.8
2014-Aug-19 10:28N 36°00' W 005°22'198 9.3
2014-Aug-18 13:15N 36°51' W 001°23'4 2.0
2014-Aug-18 11:28N 36°53' W 001°21'4 1.8
2014-Aug-18 09:11N 36°57' W 001°17'1 1.4
2014-Aug-18 08:16N 36°58' W 001°16'2 1.8
2014-Aug-18 07:08N 36°59' W 001°15'1 1.8
2014-Aug-18 06:18N 37°01' W 001°14'5 1.7
2014-Aug-18 03:19N 37°05' W 001°10'2 1.3
2014-Aug-18 02:07N 37°06' W 001°09'3 1.8
2014-Aug-18 00:09N 37°08' W 001°05'13 2.3
2014-Aug-17 18:33N 37°17' W 000°55'7 7.2
2014-Aug-17 17:33N 37°24' W 000°58'9 8.6
2014-Aug-17 16:33N 37°32' W 001°03'1 0.0
2014-Aug-15 15:15N 37°33' W 001°04'  
2014-Aug-13 06:32N 37°31' W 001°04'1 0.3
2014-Aug-13 01:11N 37°30' W 001°04'4412.0
2014-Aug-12 21:33N 36°54' W 001°35'1211.2
2014-Aug-12 20:30N 36°44' W 001°43'1210.8
2014-Aug-12 19:26N 36°35' W 001°51'17010.1
2014-Aug-12 02:33N 36°01' W 005°19'  
Track history (hours):
 
Tides and Currents Weather Stations Pressure Air Temp Water Temp Dewpoint Dewpoint Depression Visibility Wind Speed Wind Dir Waves Ship Positions

Pelagos

Last reported at 2014-Aug-20 19:06 UTC. Time now 2014-Aug-23 15:25 UTC.
Position N 39°23' W 009°50'.

Length 249 m; draft 8 m.

Type: Ship. MMSI: 240335000.

Date/timePositionNaut miles runAvg speedWind from/ knotsBaromVisibWave heightAir tempDewpointWater temp
2014-Aug-20 19:06N 39°23' W 009°50'6310.9
2014-Aug-20 13:16N 38°20' W 009°44'5110.9
2014-Aug-20 08:31N 37°29' W 009°30'1110.9
2014-Aug-20 07:33N 37°19' W 009°27'104 9.9
2014-Aug-19 21:07N 36°21' W 007°40'1010.9
2014-Aug-19 20:12N 36°18' W 007°28'1110.9
2014-Aug-19 19:13N 36°14' W 007°16'8510.7
2014-Aug-19 11:19N 35°58' W 005°33'910.8
2014-Aug-19 10:28N 36°00' W 005°22'198 9.3
2014-Aug-18 13:15N 36°51' W 001°23'4 2.0
2014-Aug-18 11:28N 36°53' W 001°21'4 1.8
2014-Aug-18 09:11N 36°57' W 001°17'1 1.4
2014-Aug-18 08:16N 36°58' W 001°16'2 1.8
2014-Aug-18 07:08N 36°59' W 001°15'1 1.8
2014-Aug-18 06:18N 37°01' W 001°14'5 1.7
2014-Aug-18 03:19N 37°05' W 001°10'2 1.3
2014-Aug-18 02:07N 37°06' W 001°09'3 1.8
2014-Aug-18 00:09N 37°08' W 001°05'13 2.3
2014-Aug-17 18:33N 37°17' W 000°55'7 7.2
2014-Aug-17 17:33N 37°24' W 000°58'9 8.6
2014-Aug-17 16:33N 37°32' W 001°03'1 0.0
2014-Aug-15 15:15N 37°33' W 001°04'  
2014-Aug-13 06:32N 37°31' W 001°04'1 0.3
2014-Aug-13 01:11N 37°30' W 001°04'4412.0
2014-Aug-12 21:33N 36°54' W 001°35'1211.2
2014-Aug-12 20:30N 36°44' W 001°43'1210.8
2014-Aug-12 19:26N 36°35' W 001°51'17010.1
2014-Aug-12 02:33N 36°01' W 005°19'  

Dump ship's entire track history